Linden, Michigan
Current Conditions -  °F | °C
As of 4:53 PM on Monday 20 Oct 2014 (Local Time) from KFNT Reporting Station
Overcast Overcast  
Wind Chill: 58°   Ceiling: 3400
Heat Index: 58°   Visibility: 10mi
Dew Point: 48°   Wind: 5mph
Humidity: 70%   Direction: 240°WSW
Pressure: 29.79"   Gusts: NA
Location:  42.81°N, 83.78°W
Report Text: KFNT 202053Z 24004KT 10SM SCT026 BKN034 OVC065 14/09 A2979 RMK AO2 SLP087 T01440089 53003
Loading
Personal Weather Stations






























Interactive Weather Map
Tropical Storm Tracking
New forecast layout! Learn more

10-Day Weather Forecast

Advertisements
Track Severe Weather on mobile